Time;durP1;ratioP1;P1;durP2;ratioP2;P2;SDS_P1;SDS_P2;PMS_P1;PMS_P2;Temp;Humidity;BMP_temperature;BMP_pressure;BME280_temperature;BME280_humidity;BME280_pressure;Samples;Min_cycle;Max_cycle;Signal;HPM_P1;HPM_P2
2023/03/27 00:06:44;;;;;;;;;;;;;;;4.79;72.80;101328.31;20509637;28;20259;-59
2023/03/27 00:17:05;;;;;;;;;;;;;;;4.68;72.11;101330.00;20501900;28;19977;-60
2023/03/27 00:27:27;;;;;;;;;;;;;;;4.62;73.31;101340.22;20509110;28;20318;-60
2023/03/27 00:37:48;;;;;;;;;;;;;;;4.59;73.17;101355.59;20490978;28;20483;-59
2023/03/27 00:48:10;;;;;;;;;;;;;;;4.58;73.37;101366.69;20501825;28;19926;-60
2023/03/27 00:58:35;;;;;;;;;;;;;;;4.49;72.08;101404.22;20501706;28;19978;-60
2023/03/27 01:08:57;;;;;;;;;;;;;;;4.41;74.44;101400.81;20499077;28;19929;-59
2023/03/27 01:19:41;;;;;;;;;;;;;;;4.30;75.75;101393.06;20514874;28;19922;-59
2023/03/27 01:30:23;;;;;;;;;;;;;;;4.31;75.85;101393.91;20512847;28;19929;-60
2023/03/27 01:41:04;;;;;;;;;;;;;;;4.31;75.47;101416.97;20504658;28;19922;-60
2023/03/27 01:51:33;;;;;;;;;;;;;;;4.30;75.68;101417.81;20493109;28;19989;-60
2023/03/27 02:02:02;;;;;;;;;;;;;;;4.26;75.83;101419.50;20504099;28;19954;-59
2023/03/27 02:12:30;;;;;;;;;;;;;;;4.15;75.68;101433.97;20538593;28;19929;-60
2023/03/27 02:22:52;;;;;;;;;;;;;;;4.04;76.16;101445.84;20527701;28;20337;-59
2023/03/27 02:33:26;;;;;;;;;;;;;;;3.98;76.21;101456.91;20500864;28;19941;-60
2023/03/27 02:43:55;;;;;;;;;;;;;;;4.04;76.32;101471.44;20519952;28;19977;-59
2023/03/27 02:54:24;;;;;;;;;;;;;;;3.94;75.60;101469.66;20526278;28;19926;-60
2023/03/27 03:04:55;;;;;;;;;;;;;;;3.88;76.87;101477.31;20524763;28;19938;-60
2023/03/27 03:15:17;;;;;;;;;;;;;;;3.70;77.80;101484.84;20510143;28;19922;-60
2023/03/27 03:25:38;;;;;;;;;;;;;;;3.56;78.15;101478.72;20514509;28;19922;-59
2023/03/27 03:36:00;;;;;;;;;;;;;;;3.50;78.51;101507.66;20505253;28;19922;-60
2023/03/27 03:46:22;;;;;;;;;;;;;;;3.35;78.67;101522.03;20511542;28;19922;-60
2023/03/27 03:56:43;;;;;;;;;;;;;;;3.31;78.77;101531.38;20487436;28;20009;-60
2023/03/27 04:07:05;;;;;;;;;;;;;;;3.23;79.13;101543.19;20503236;28;19935;-60
2023/03/27 04:17:27;;;;;;;;;;;;;;;3.14;79.26;101547.34;20511309;28;19926;-60
2023/03/27 04:27:51;;;;;;;;;;;;;;;3.09;79.90;101560.91;20492792;28;19922;-60
2023/03/27 04:38:13;;;;;;;;;;;;;;;3.06;80.01;101573.69;20509764;28;19922;-60
2023/03/27 04:48:36;;;;;;;;;;;;;;;3.04;80.41;101588.13;20502482;28;20374;-60
2023/03/27 04:59:02;;;;;;;;;;;;;;;3.08;80.43;101587.34;20500620;28;19922;-59
2023/03/27 05:09:24;;;;;;;;;;;;;;;3.08;80.70;101610.34;20498275;28;20330;-60
2023/03/27 05:19:46;;;;;;;;;;;;;;;2.99;80.90;101628.13;20489327;28;19922;-60
2023/03/27 05:30:07;;;;;;;;;;;;;;;3.08;80.63;101634.19;20501621;28;19930;-60
2023/03/27 05:40:30;;;;;;;;;;;;;;;3.13;80.85;101635.13;20497356;28;19980;-60
2023/03/27 05:50:51;;;;;;;;;;;;;;;3.21;80.45;101638.59;20518275;28;19922;-61
2023/03/27 06:01:13;;;;;;;;;;;;;;;3.30;80.29;101649.81;20515722;28;19930;-60
2023/03/27 06:11:34;;;;;;;;;;;;;;;3.45;80.12;101659.38;20529648;28;19994;-60
2023/03/27 06:21:56;;;;;;;;;;;;;;;3.57;80.04;101683.41;20510375;28;19922;-60
2023/03/27 06:32:17;;;;;;;;;;;;;;;3.57;80.47;101692.81;20508967;28;19985;-60
2023/03/27 06:42:38;;;;;;;;;;;;;;;3.60;80.62;101706.50;20506066;28;19926;-60
2023/03/27 06:53:03;;;;;;;;;;;;;;;3.72;80.17;101713.44;20505922;28;19926;-60
2023/03/27 07:03:36;;;;;;;;;;;;;;;3.82;79.75;101728.94;20510425;28;20358;-60
2023/03/27 07:13:57;;;;;;;;;;;;;;;4.03;79.64;101741.97;20527573;28;19930;-60
2023/03/27 07:24:19;;;;;;;;;;;;;;;4.21;78.84;101756.69;20511387;28;19925;-60
2023/03/27 07:34:41;;;;;;;;;;;;;;;4.53;77.76;101769.81;20494883;28;19922;-59
2023/03/27 07:45:02;;;;;;;;;;;;;;;4.95;75.21;101755.66;20515159;28;20394;-60
2023/03/27 07:55:28;;;;;;;;;;;;;;;5.03;74.99;101763.41;20510944;28;19923;-61
2023/03/27 08:05:54;;;;;;;;;;;;;;;5.09;74.39;101773.72;20499867;28;20042;-60
2023/03/27 08:16:17;;;;;;;;;;;;;;;5.21;75.93;101757.53;20496820;28;19929;-60
2023/03/27 08:26:38;;;;;;;;;;;;;;;5.39;74.91;101767.94;20501089;28;19965;-60
2023/03/27 08:37:00;;;;;;;;;;;;;;;5.63;72.20;101768.94;20482252;28;19922;-61
2023/03/27 08:47:27;;;;;;;;;;;;;;;5.86;71.20;101787.06;20490432;28;20428;-60
2023/03/27 08:57:49;;;;;;;;;;;;;;;6.15;71.96;101790.59;20478759;28;19977;-60
2023/03/27 09:08:31;;;;;;;;;;;;;;;6.48;70.62;101811.25;20469692;28;20350;-61
2023/03/27 09:19:02;;;;;;;;;;;;;;;5.72;76.92;101824.59;20493064;28;19926;-59
2023/03/27 09:29:25;;;;;;;;;;;;;;;5.83;75.48;101823.84;20508075;28;19934;-60
2023/03/27 09:39:51;;;;;;;;;;;;;;;6.11;69.92;101819.69;20480941;28;19926;-59
2023/03/27 09:50:22;;;;;;;;;;;;;;;6.52;69.88;101817.28;20486554;28;19926;-59
2023/03/27 10:00:47;;;;;;;;;;;;;;;6.83;69.63;101825.03;20497134;28;19937;-59
2023/03/27 10:11:14;;;;;;;;;;;;;;;6.60;74.04;101842.13;20484070;28;19942;-60
2023/03/27 10:21:39;;;;;;;;;;;;;;;6.74;75.45;101830.16;20505961;28;19969;-59
2023/03/27 10:32:02;;;;;;;;;;;;;;;6.31;74.20;101872.03;20485577;28;20021;-58
2023/03/27 10:42:30;;;;;;;;;;;;;;;5.54;76.52;101876.69;20508918;28;20033;-59
2023/03/27 10:52:51;;;;;;;;;;;;;;;5.64;78.84;101883.59;20483448;28;19929;-58
2023/03/27 11:03:22;;;;;;;;;;;;;;;5.51;78.50;101901.47;20501516;28;20448;-58
2023/03/27 11:13:44;;;;;;;;;;;;;;;5.94;76.89;101893.25;20513892;28;19922;-58
2023/03/27 11:24:14;;;;;;;;;;;;;;;6.16;68.99;101905.34;20508117;28;19985;-58
2023/03/27 11:34:52;;;;;;;;;;;;;;;6.66;71.28;101903.00;20493178;28;19981;-59
2023/03/27 11:45:16;;;;;;;;;;;;;;;6.17;73.62;101948.19;20500544;28;19927;-59
2023/03/27 11:55:45;;;;;;;;;;;;;;;5.56;76.07;101951.13;20489861;28;19927;-59
2023/03/27 12:06:17;;;;;;;;;;;;;;;5.64;76.12;101949.50;20511173;28;19926;-59
2023/03/27 12:16:39;;;;;;;;;;;;;;;6.21;74.31;101929.34;20507130;28;19926;-59
2023/03/27 12:27:20;;;;;;;;;;;;;;;7.03;70.28;101925.41;20493181;28;20005;-60
2023/03/27 12:37:46;;;;;;;;;;;;;;;6.27;74.52;101987.63;20512664;28;19984;-59
2023/03/27 12:48:08;;;;;;;;;;;;;;;5.91;76.81;101980.56;20502419;28;20274;-59
2023/03/27 12:58:32;;;;;;;;;;;;;;;6.13;77.39;101984.13;20501618;28;19929;-59
2023/03/27 13:09:07;;;;;;;;;;;;;;;6.68;74.74;101961.31;20502036;28;19926;-60
2023/03/27 13:19:28;;;;;;;;;;;;;;;6.84;73.87;101955.38;20478619;28;19993;-59
2023/03/27 13:29:50;;;;;;;;;;;;;;;7.36;66.84;101955.47;20495154;28;19949;-59
2023/03/27 13:40:23;;;;;;;;;;;;;;;7.16;61.42;101967.47;20497674;28;19934;-59
2023/03/27 13:50:45;;;;;;;;;;;;;;;7.34;63.23;101970.06;20474276;28;20262;-59
2023/03/27 14:01:15;;;;;;;;;;;;;;;7.34;61.89;101986.38;20497202;28;19957;-60
2023/03/27 14:11:52;;;;;;;;;;;;;;;7.89;64.54;101971.81;20539172;28;20388;-59
2023/03/27 14:22:33;;;;;;;;;;;;;;;8.13;64.35;101985.50;20513519;28;20402;-59
2023/03/27 14:32:55;;;;;;;;;;;;;;;7.63;57.83;102004.44;20483857;28;20386;-60
2023/03/27 14:43:17;;;;;;;;;;;;;;;7.84;60.40;102025.03;20508992;28;20464;-59
2023/03/27 14:53:42;;;;;;;;;;;;;;;8.03;60.41;102012.19;20515615;28;19926;-60
2023/03/27 15:04:06;;;;;;;;;;;;;;;8.63;59.15;102018.09;20503724;28;19944;-59
2023/03/27 15:14:28;;;;;;;;;;;;;;;8.79;58.49;102030.13;20491199;28;20275;-59
2023/03/27 15:25:25;;;;;;;;;;;;;;;8.02;62.75;102053.41;20512542;28;19944;-60
2023/03/27 15:35:50;;;;;;;;;;;;;;;8.84;60.33;102042.13;20424050;28;19926;-60
2023/03/27 15:46:16;;;;;;;;;;;;;;;9.42;58.59;102052.19;20488621;28;19922;-59
2023/03/27 15:56:41;;;;;;;;;;;;;;;9.14;61.24;102070.41;20489180;28;19949;-60
2023/03/27 16:07:05;;;;;;;;;;;;;;;7.20;70.26;102108.19;20490083;28;19926;-59
2023/03/27 16:17:26;;;;;;;;;;;;;;;6.35;74.39;102117.94;20492118;28;19938;-59
2023/03/27 16:27:50;;;;;;;;;;;;;;;6.24;73.69;102109.28;20500094;28;20298;-59
2023/03/27 16:38:12;;;;;;;;;;;;;;;6.24;73.26;102122.13;20491894;28;20002;-59
2023/03/27 16:48:34;;;;;;;;;;;;;;;6.22;70.32;102120.38;20495386;28;20009;-59
2023/03/27 16:58:56;;;;;;;;;;;;;;;6.20;68.11;102128.09;20482173;28;19981;-60
2023/03/27 17:09:17;;;;;;;;;;;;;;;6.28;67.59;102141.84;20486495;28;20343;-59
2023/03/27 17:19:39;;;;;;;;;;;;;;;6.36;64.62;102153.06;20491517;28;19938;-60
2023/03/27 17:30:00;;;;;;;;;;;;;;;6.42;65.99;102168.56;20498584;28;19922;-60
2023/03/27 17:40:22;;;;;;;;;;;;;;;6.40;65.39;102162.53;20493987;28;20010;-60
2023/03/27 17:50:45;;;;;;;;;;;;;;;6.46;67.38;102172.88;20508617;28;20394;-59
2023/03/27 18:01:20;;;;;;;;;;;;;;;6.47;67.10;102191.72;20511437;28;20021;-59
2023/03/27 18:11:41;;;;;;;;;;;;;;;6.38;67.82;102195.06;20517941;28;19922;-59
2023/03/27 18:22:02;;;;;;;;;;;;;;;6.31;67.79;102202.69;20516836;28;19981;-59
2023/03/27 18:32:25;;;;;;;;;;;;;;;6.20;66.74;102209.44;20495232;28;19953;-59
2023/03/27 18:42:46;;;;;;;;;;;;;;;6.05;67.03;102216.16;20503195;28;20373;-59
2023/03/27 18:53:08;;;;;;;;;;;;;;;6.02;68.88;102215.28;20512304;28;19923;-59
2023/03/27 19:03:33;;;;;;;;;;;;;;;5.99;67.83;102228.06;20513649;28;19930;-60
2023/03/27 19:13:55;;;;;;;;;;;;;;;5.89;69.50;102231.38;20510614;28;19937;-59
2023/03/27 19:24:16;;;;;;;;;;;;;;;5.83;68.52;102236.44;20505969;28;19977;-60
2023/03/27 19:34:38;;;;;;;;;;;;;;;5.72;69.96;102245.69;20505116;28;19922;-59
2023/03/27 19:45:04;;;;;;;;;;;;;;;5.64;70.51;102237.03;20504062;28;20382;-60
2023/03/27 19:55:25;;;;;;;;;;;;;;;5.52;70.28;102247.13;20509419;28;20429;-60
2023/03/27 20:05:47;;;;;;;;;;;;;;;5.54;70.47;102245.44;20497801;28;19926;-60
2023/03/27 20:16:13;;;;;;;;;;;;;;;5.48;71.16;102255.63;20499940;28;20366;-60
2023/03/27 20:26:38;;;;;;;;;;;;;;;5.47;72.04;102265.06;20484595;28;19926;-60
2023/03/27 20:36:59;;;;;;;;;;;;;;;5.45;72.19;102261.59;20489306;28;19926;-59
2023/03/27 20:47:21;;;;;;;;;;;;;;;5.46;71.08;102267.56;20511017;28;19922;-60
2023/03/27 20:57:43;;;;;;;;;;;;;;;5.42;72.15;102276.09;20466687;28;19926;-60
2023/03/27 21:08:06;;;;;;;;;;;;;;;5.30;72.84;102286.16;20477860;28;19958;-59
2023/03/27 21:18:27;;;;;;;;;;;;;;;5.22;74.13;102296.31;20485220;28;20240;-60
2023/03/27 21:28:50;;;;;;;;;;;;;;;5.23;73.21;102303.19;20492264;28;19933;-59
2023/03/27 21:39:11;;;;;;;;;;;;;;;5.16;74.34;102313.31;20500075;28;19926;-59
2023/03/27 21:49:34;;;;;;;;;;;;;;;5.19;74.30;102324.50;20466853;28;19926;-59
2023/03/27 21:59:56;;;;;;;;;;;;;;;4.97;79.14;102348.94;20483922;28;20021;-59
2023/03/27 22:10:18;;;;;;;;;;;;;;;4.82;79.37;102338.41;20476389;28;19930;-59
2023/03/27 22:20:39;;;;;;;;;;;;;;;4.70;78.60;102329.63;20488977;28;19930;-59
2023/03/27 22:31:03;;;;;;;;;;;;;;;4.65;79.48;102328.69;20491956;28;19926;-59
2023/03/27 22:41:24;;;;;;;;;;;;;;;4.58;78.22;102330.25;20498191;28;19934;-59
2023/03/27 22:51:46;;;;;;;;;;;;;;;4.52;79.46;102353.22;20514062;28;19922;-59
2023/03/27 23:02:07;;;;;;;;;;;;;;;4.49;79.36;102372.78;20506974;28;20373;-59
2023/03/27 23:12:28;;;;;;;;;;;;;;;4.45;78.71;102374.44;20509063;28;19936;-59
2023/03/27 23:22:50;;;;;;;;;;;;;;;4.52;78.84;102389.13;20490223;28;19930;-59
2023/03/27 23:33:11;;;;;;;;;;;;;;;4.54;78.55;102397.66;20522860;28;19923;-59
2023/03/27 23:43:33;;;;;;;;;;;;;;;4.50;78.81;102415.53;20510992;28;19926;-57
2023/03/27 23:53:54;;;;;;;;;;;;;;;4.41;80.47;102417.91;20504433;28;19926;-58
